createdAt,value
2023-01-23T00:00:17.066Z,1.20
2023-01-23T00:02:45.762Z,1.20
2023-01-23T00:05:14.533Z,1.20
2023-01-23T00:07:43.329Z,1.20
2023-01-23T00:10:12.987Z,1.20
2023-01-23T00:12:44.658Z,1.20
2023-01-23T00:15:14.786Z,1.20
2023-01-23T00:17:45.419Z,1.20
2023-01-23T00:20:14.899Z,1.20
2023-01-23T00:22:43.531Z,1.30
2023-01-23T00:25:12.366Z,1.30
2023-01-23T00:27:44.346Z,1.30
2023-01-23T00:30:13.868Z,1.30
2023-01-23T00:32:42.524Z,1.30
2023-01-23T00:35:11.222Z,1.20
2023-01-23T00:37:39.961Z,1.20
2023-01-23T00:40:10.032Z,1.20
2023-01-23T00:42:39.823Z,1.20
2023-01-23T00:45:10.462Z,1.20
2023-01-23T00:47:38.974Z,1.10
2023-01-23T00:50:07.968Z,1.10
2023-01-23T00:52:36.644Z,1.10
2023-01-23T00:55:09.700Z,1.10
2023-01-23T00:57:38.253Z,1.00
2023-01-23T01:00:07.947Z,1.00
2023-01-23T01:02:38.669Z,1.00
2023-01-23T01:05:08.957Z,1.10
2023-01-23T01:07:37.541Z,1.10
2023-01-23T01:10:07.170Z,1.10
2023-01-23T01:12:35.722Z,1.10
2023-01-23T01:15:06.183Z,1.10
2023-01-23T01:17:34.729Z,1.10
2023-01-23T01:20:06.424Z,1.10
2023-01-23T01:22:35.199Z,1.10
2023-01-23T01:25:04.020Z,1.10
2023-01-23T01:27:32.548Z,1.10
2023-01-23T01:30:01.277Z,1.10
2023-01-23T01:32:29.951Z,1.10
2023-01-23T01:34:58.494Z,1.10
2023-01-23T01:37:28.603Z,1.10
2023-01-23T01:39:57.210Z,1.10
2023-01-23T01:42:28.478Z,1.10
2023-01-23T01:44:59.528Z,1.10
2023-01-23T01:47:28.224Z,1.10
2023-01-23T01:50:01.230Z,1.10
2023-01-23T01:52:31.604Z,1.10
2023-01-23T01:55:03.566Z,1.10
2023-01-23T01:57:34.891Z,1.20
2023-01-23T02:00:08.464Z,1.20
2023-01-23T02:02:47.420Z,1.20
2023-01-23T02:05:20.224Z,1.20
2023-01-23T02:07:55.590Z,1.20
2023-01-23T02:10:26.698Z,1.20
2023-01-23T02:12:55.178Z,1.20
2023-01-23T02:15:25.048Z,1.20
2023-01-23T02:17:56.370Z,1.20
2023-01-23T02:20:27.615Z,1.20
2023-01-23T02:23:10.904Z,1.20
2023-01-23T02:25:45.341Z,1.20
2023-01-23T02:28:18.872Z,1.20
2023-01-23T02:30:48.158Z,1.20
2023-01-23T02:33:45.868Z,1.20
2023-01-23T02:36:19.030Z,1.20
2023-01-23T02:38:56.897Z,1.20
2023-01-23T02:41:30.325Z,1.20
2023-01-23T02:44:04.462Z,1.20
2023-01-23T02:46:33.285Z,1.20
2023-01-23T02:49:02.710Z,1.20
2023-01-23T02:51:32.745Z,1.20
2023-01-23T02:54:01.696Z,1.30
2023-01-23T02:56:30.518Z,1.20
2023-01-23T02:59:17.863Z,1.30
2023-01-23T03:01:46.395Z,1.30
2023-01-23T03:04:14.945Z,1.30
2023-01-23T03:06:43.564Z,1.30
2023-01-23T03:09:16.082Z,1.30
2023-01-23T03:11:45.977Z,1.30
2023-01-23T03:14:19.976Z,1.30
2023-01-23T03:16:51.579Z,1.30
2023-01-23T03:19:23.276Z,1.40
2023-01-23T03:21:52.749Z,1.40
2023-01-23T03:24:22.118Z,1.40
2023-01-23T03:26:51.675Z,1.40
2023-01-23T03:29:55.098Z,1.40
2023-01-23T03:32:26.205Z,1.40
2023-01-23T03:34:57.501Z,1.40
2023-01-23T03:37:26.168Z,1.40
2023-01-23T03:40:13.859Z,1.40
2023-01-23T03:42:42.639Z,1.50
2023-01-23T03:45:15.480Z,1.40
2023-01-23T03:47:50.280Z,1.40
2023-01-23T03:50:19.418Z,1.40
2023-01-23T03:52:48.121Z,1.40
2023-01-23T03:55:17.512Z,1.40
2023-01-23T03:57:47.998Z,1.40
2023-01-23T04:00:22.062Z,1.40
2023-01-23T04:02:57.946Z,1.40
2023-01-23T04:05:26.728Z,1.40
2023-01-23T04:07:55.391Z,1.50
2023-01-23T04:10:25.045Z,1.50
2023-01-23T04:12:56.850Z,1.40
2023-01-23T04:15:27.077Z,1.40
2023-01-23T04:17:58.140Z,1.40
2023-01-23T04:20:27.789Z,1.40
2023-01-23T04:22:58.190Z,1.40
2023-01-23T04:25:30.963Z,1.40
2023-01-23T04:27:59.509Z,1.40
2023-01-23T04:30:29.698Z,1.40
2023-01-23T04:33:02.440Z,1.40
2023-01-23T04:35:31.095Z,1.40
2023-01-23T04:38:00.424Z,1.40
2023-01-23T04:40:30.109Z,1.40
2023-01-23T04:43:01.600Z,1.40
2023-01-23T04:45:37.130Z,1.50
2023-01-23T04:48:19.840Z,1.50
2023-01-23T04:50:50.135Z,1.50
2023-01-23T04:53:21.968Z,1.40
2023-01-23T04:55:58.209Z,1.40
2023-01-23T04:58:26.841Z,1.40
2023-01-23T05:01:05.228Z,1.40
2023-01-23T05:03:36.165Z,1.40
2023-01-23T05:06:05.410Z,1.40
2023-01-23T05:08:34.744Z,1.40
2023-01-23T05:11:23.537Z,1.40
2023-01-23T05:13:52.194Z,1.40
2023-01-23T05:16:24.142Z,1.40
2023-01-23T05:19:11.681Z,1.40
2023-01-23T05:21:41.129Z,1.30
2023-01-23T05:24:13.768Z,1.30
2023-01-23T05:26:43.925Z,1.30
2023-01-23T05:29:12.703Z,1.30
2023-01-23T05:31:51.487Z,1.30
2023-01-23T05:34:38.722Z,1.30
2023-01-23T05:37:17.706Z,1.30
2023-01-23T05:39:50.931Z,1.40
2023-01-23T05:42:20.562Z,1.40
2023-01-23T05:45:01.888Z,1.40
2023-01-23T05:47:39.353Z,1.30
2023-01-23T05:50:11.191Z,1.30
2023-01-23T05:52:39.975Z,1.30
2023-01-23T05:55:09.551Z,1.30
2023-01-23T05:57:41.111Z,1.40
2023-01-23T06:00:28.309Z,1.30
2023-01-23T06:03:24.275Z,1.30
2023-01-23T06:06:03.258Z,1.30
2023-01-23T06:08:31.931Z,1.30
2023-01-23T06:11:00.801Z,1.30
2023-01-23T06:13:30.456Z,1.30
2023-01-23T06:15:59.703Z,1.30
2023-01-23T06:18:29.987Z,1.40
2023-01-23T06:21:00.687Z,1.40
2023-01-23T06:23:30.624Z,1.50
2023-01-23T06:26:02.944Z,1.50
2023-01-23T06:28:32.890Z,1.50
2023-01-23T06:31:06.650Z,1.50
2023-01-23T06:33:53.053Z,1.50
2023-01-23T06:36:25.993Z,1.40
2023-01-23T06:38:55.540Z,1.50
2023-01-23T06:41:29.528Z,1.50
2023-01-23T06:44:03.150Z,1.50
2023-01-23T06:46:31.820Z,1.40
2023-01-23T06:49:03.369Z,1.40
2023-01-23T06:51:35.916Z,1.40
2023-01-23T06:54:09.711Z,1.40
2023-01-23T06:56:41.022Z,1.30
2023-01-23T06:59:11.892Z,1.40
2023-01-23T07:01:40.903Z,1.40
2023-01-23T07:04:27.073Z,1.50
2023-01-23T07:06:55.818Z,1.50
2023-01-23T07:09:25.739Z,1.50
2023-01-23T07:12:07.499Z,1.50
2023-01-23T07:14:36.648Z,1.60
2023-01-23T07:17:05.581Z,1.60
2023-01-23T07:19:35.892Z,1.60
2023-01-23T07:22:08.237Z,1.60
2023-01-23T07:24:36.926Z,1.60
2023-01-23T07:27:05.587Z,1.60
2023-01-23T07:29:34.556Z,1.60
2023-01-23T07:32:03.208Z,1.60
2023-01-23T07:34:31.932Z,1.60
2023-01-23T07:37:02.206Z,1.60
2023-01-23T07:39:30.879Z,1.60
2023-01-23T07:41:59.433Z,1.70
2023-01-23T07:44:30.265Z,1.70
2023-01-23T07:46:59.082Z,1.70
2023-01-23T07:49:27.735Z,1.70
2023-01-23T07:51:56.402Z,1.70
2023-01-23T07:54:26.457Z,1.60
2023-01-23T07:56:55.176Z,1.60
2023-01-23T07:59:24.046Z,1.60
2023-01-23T08:01:52.790Z,1.70
2023-01-23T08:04:22.082Z,1.70
2023-01-23T08:06:50.731Z,1.70
2023-01-23T08:09:19.439Z,1.70
2023-01-23T08:11:52.119Z,1.80
2023-01-23T08:14:20.915Z,1.80
2023-01-23T08:16:55.296Z,1.90
2023-01-23T08:19:25.443Z,1.90
2023-01-23T08:21:54.360Z,1.90
2023-01-23T08:24:23.276Z,1.90
2023-01-23T08:26:53.590Z,2.00
2023-01-23T08:29:22.383Z,2.00
2023-01-23T08:31:51.845Z,2.00
2023-01-23T08:34:20.535Z,2.00
2023-01-23T08:36:49.190Z,2.00
2023-01-23T08:39:18.461Z,2.10
2023-01-23T08:41:47.534Z,2.10
2023-01-23T08:44:17.670Z,2.10
2023-01-23T08:46:47.428Z,2.10
2023-01-23T08:49:19.648Z,2.10
2023-01-23T08:51:48.531Z,2.10
2023-01-23T08:54:17.222Z,2.10
2023-01-23T08:56:45.946Z,2.20
2023-01-23T08:59:14.618Z,2.30
2023-01-23T09:01:46.356Z,2.40
2023-01-23T09:04:15.484Z,2.40
2023-01-23T09:06:44.778Z,2.50
2023-01-23T09:09:13.428Z,2.50
2023-01-23T09:11:41.964Z,2.50
2023-01-23T09:14:10.561Z,2.60
2023-01-23T09:16:40.613Z,2.60
2023-01-23T09:19:12.908Z,2.60
2023-01-23T09:21:41.697Z,2.60
2023-01-23T09:24:10.372Z,2.70
2023-01-23T09:26:39.091Z,2.80
2023-01-23T09:29:07.897Z,2.90
2023-01-23T09:31:36.820Z,3.00
2023-01-23T09:34:07.974Z,3.20
2023-01-23T09:36:43.266Z,3.30
2023-01-23T09:39:12.711Z,3.40
2023-01-23T09:41:42.530Z,3.30
2023-01-23T09:44:16.844Z,3.30
2023-01-23T09:46:51.542Z,3.30
2023-01-23T09:49:27.371Z,3.30
2023-01-23T09:52:01.878Z,3.30
2023-01-23T09:54:38.200Z,3.30
2023-01-23T09:57:15.190Z,3.30
2023-01-23T09:59:59.550Z,3.40
2023-01-23T10:02:29.726Z,3.40
2023-01-23T10:05:02.673Z,3.40
2023-01-23T10:07:49.446Z,3.50
2023-01-23T10:10:44.388Z,3.40
2023-01-23T10:13:17.240Z,3.30
2023-01-23T10:16:06.032Z,3.10
2023-01-23T10:18:43.521Z,2.90
2023-01-23T10:21:22.493Z,2.80
2023-01-23T10:24:02.956Z,2.70
2023-01-23T10:26:34.430Z,2.70
2023-01-23T10:29:11.665Z,2.70
2023-01-23T10:31:47.729Z,2.80
2023-01-23T10:34:21.539Z,2.90
2023-01-23T10:37:03.637Z,3.00
2023-01-23T10:39:43.055Z,3.00
2023-01-23T10:42:14.231Z,3.10
2023-01-23T10:44:43.061Z,3.20
2023-01-23T10:47:22.603Z,3.30
2023-01-23T10:49:51.840Z,3.40
2023-01-23T10:52:36.040Z,3.40
2023-01-23T10:55:07.574Z,3.50
2023-01-23T10:57:48.545Z,3.60
2023-01-23T11:00:23.758Z,3.70
2023-01-23T11:02:52.600Z,3.90
2023-01-23T11:05:50.658Z,4.00
2023-01-23T11:08:26.426Z,4.10
2023-01-23T11:11:19.094Z,4.20
2023-01-23T11:13:50.008Z,4.30
2023-01-23T11:16:21.876Z,4.30
2023-01-23T11:18:55.770Z,4.30
2023-01-23T11:21:28.249Z,4.40
2023-01-23T11:24:10.834Z,4.30
2023-01-23T11:26:41.002Z,4.20
2023-01-23T11:29:25.435Z,4.30
2023-01-23T11:31:59.472Z,4.30
2023-01-23T11:34:35.259Z,4.20
2023-01-23T11:37:14.363Z,4.10
2023-01-23T11:39:50.261Z,4.10
2023-01-23T11:42:20.812Z,4.10
2023-01-23T11:44:51.397Z,4.20
2023-01-23T11:47:50.321Z,4.40
2023-01-23T11:50:49.933Z,4.60
2023-01-23T11:53:41.109Z,4.80
2023-01-23T11:56:54.967Z,4.90
2023-01-23T11:59:46.165Z,5.10
2023-01-23T12:02:53.750Z,5.20
2023-01-23T12:05:33.167Z,5.40
2023-01-23T12:08:20.212Z,5.40
2023-01-23T12:10:58.330Z,5.40
2023-01-23T12:13:43.583Z,5.40
2023-01-23T12:16:25.845Z,5.40
2023-01-23T12:19:14.654Z,5.40
2023-01-23T12:21:49.255Z,5.50
2023-01-23T12:24:29.132Z,5.70
2023-01-23T12:27:03.881Z,5.70
2023-01-23T12:29:46.781Z,5.70
2023-01-23T12:32:50.220Z,5.70
2023-01-23T12:35:31.227Z,5.60
2023-01-23T12:38:11.831Z,5.80
2023-01-23T12:40:45.058Z,5.80
2023-01-23T12:43:18.156Z,5.80
2023-01-23T12:45:51.385Z,5.90
2023-01-23T12:48:28.584Z,5.90
2023-01-23T12:51:03.472Z,5.80
2023-01-23T12:53:36.213Z,5.60
2023-01-23T12:56:11.383Z,5.50
2023-01-23T12:58:52.582Z,5.60
2023-01-23T13:01:46.063Z,5.60
2023-01-23T13:04:29.211Z,5.70
2023-01-23T13:07:11.079Z,6.00
2023-01-23T13:09:51.640Z,6.00
2023-01-23T13:12:23.423Z,6.00
2023-01-23T13:15:30.934Z,6.00
2023-01-23T13:17:48.354Z,6.10
2023-01-23T13:20:42.241Z,6.20
2023-01-23T13:23:30.890Z,6.30
2023-01-23T13:26:29.398Z,6.20
2023-01-23T13:29:02.289Z,6.20
2023-01-23T13:31:38.682Z,6.20
2023-01-23T13:34:39.362Z,6.20
2023-01-23T13:37:35.369Z,6.30
2023-01-23T13:40:14.605Z,6.20
2023-01-23T13:42:52.882Z,6.10
2023-01-23T13:45:31.128Z,6.00
2023-01-23T14:03:17.883Z,5.50
2023-01-23T14:20:39.837Z,5.20
2023-01-23T14:23:37.082Z,5.70
2023-01-23T14:26:09.509Z,5.80
2023-01-23T14:28:38.762Z,5.80
2023-01-23T14:31:09.410Z,5.80
2023-01-23T14:33:44.045Z,5.60
2023-01-23T14:36:18.026Z,5.40
2023-01-23T14:38:49.726Z,5.20
2023-01-23T14:41:20.873Z,5.00
2023-01-23T14:43:57.560Z,4.80
2023-01-23T14:46:53.221Z,4.60
2023-01-23T14:49:28.371Z,4.40
2023-01-23T14:52:01.863Z,4.40
2023-01-23T14:54:33.740Z,4.30
2023-01-23T14:57:05.733Z,4.20
2023-01-23T14:59:38.629Z,4.10
2023-01-23T15:02:27.225Z,4.20
2023-01-23T15:05:19.425Z,4.10
2023-01-23T15:07:54.298Z,4.10
2023-01-23T15:10:27.065Z,4.00
2023-01-23T15:12:58.634Z,4.00
2023-01-23T15:15:28.364Z,4.00
2023-01-23T15:18:00.531Z,3.90
2023-01-23T15:20:32.717Z,3.90
2023-01-23T15:23:22.341Z,3.80
2023-01-23T15:26:10.462Z,3.80
2023-01-23T15:28:49.712Z,3.80
2023-01-23T15:31:40.422Z,3.80
2023-01-23T15:34:21.484Z,3.70
2023-01-23T15:36:52.327Z,3.70
2023-01-23T15:39:23.798Z,3.70
2023-01-23T15:41:56.878Z,3.70
2023-01-23T15:44:30.191Z,3.60
2023-01-23T15:47:01.260Z,3.60
2023-01-23T15:49:30.734Z,3.70
2023-01-23T15:52:00.337Z,3.60
2023-01-23T15:54:33.861Z,3.60
2023-01-23T15:57:07.852Z,3.60
2023-01-23T15:59:38.224Z,3.60
2023-01-23T16:02:29.436Z,3.70
2023-01-23T16:04:58.820Z,3.60
2023-01-23T16:07:34.294Z,3.60
2023-01-23T16:10:05.037Z,3.50
2023-01-23T16:12:38.848Z,3.50
2023-01-23T16:15:16.276Z,3.40
2023-01-23T16:17:45.052Z,3.40
2023-01-23T16:20:17.404Z,3.40
2023-01-23T16:22:46.580Z,3.30
2023-01-23T16:25:41.809Z,3.10
2023-01-23T16:28:15.716Z,3.00
2023-01-23T16:30:44.599Z,2.90
2023-01-23T16:33:14.047Z,2.80
2023-01-23T16:35:43.832Z,2.80
2023-01-23T16:38:21.044Z,2.80
2023-01-23T16:40:53.402Z,2.80
2023-01-23T16:43:24.345Z,2.70
2023-01-23T16:45:56.064Z,2.70
2023-01-23T16:48:27.589Z,2.60
2023-01-23T16:51:00.232Z,2.50
2023-01-23T16:53:31.590Z,2.50
2023-01-23T16:56:01.991Z,2.50
2023-01-23T16:58:36.162Z,2.60
2023-01-23T17:01:09.624Z,2.70
2023-01-23T17:03:41.915Z,2.70
2023-01-23T17:06:14.795Z,2.70
2023-01-23T17:08:43.660Z,2.70
2023-01-23T17:11:19.622Z,2.70
2023-01-23T17:13:52.424Z,2.80
2023-01-23T17:16:27.361Z,2.70
2023-01-23T17:18:58.328Z,2.70
2023-01-23T17:21:32.430Z,2.80
2023-01-23T17:24:01.221Z,2.80
2023-01-23T17:26:30.016Z,2.90
2023-01-23T17:29:00.422Z,2.90
2023-01-23T17:31:32.708Z,3.00
2023-01-23T17:34:02.932Z,3.00
2023-01-23T17:36:31.618Z,3.00
2023-01-23T17:39:00.707Z,3.00
2023-01-23T17:41:32.411Z,3.00
2023-01-23T17:44:03.143Z,3.00
2023-01-23T17:46:36.833Z,3.00
2023-01-23T17:49:06.636Z,3.00
2023-01-23T17:51:35.377Z,3.00
2023-01-23T17:54:03.819Z,3.00
2023-01-23T17:56:39.262Z,3.00
2023-01-23T17:59:11.913Z,3.00
2023-01-23T18:01:40.855Z,3.00
2023-01-23T18:04:16.691Z,3.10
2023-01-23T18:06:45.957Z,3.10
2023-01-23T18:09:21.397Z,3.10
2023-01-23T18:11:54.461Z,3.10
2023-01-23T18:14:37.702Z,3.20
2023-01-23T18:17:17.510Z,3.10
2023-01-23T18:19:46.532Z,3.10
2023-01-23T18:22:15.706Z,3.10
2023-01-23T18:24:44.918Z,3.10
2023-01-23T18:27:21.797Z,3.20
2023-01-23T18:30:11.528Z,3.10
2023-01-23T18:33:18.565Z,3.10
2023-01-23T18:36:08.015Z,3.10
2023-01-23T18:38:45.241Z,3.10
2023-01-23T18:41:22.513Z,3.10
2023-01-23T18:43:57.040Z,3.10
2023-01-23T18:46:28.151Z,3.10
2023-01-23T18:48:57.315Z,3.10
2023-01-23T18:51:34.193Z,3.10
2023-01-23T18:54:13.347Z,3.00
2023-01-23T18:56:48.290Z,3.00
2023-01-23T18:59:24.144Z,3.00
2023-01-23T19:01:55.764Z,3.10
2023-01-23T19:04:34.673Z,3.10
2023-01-23T19:07:03.894Z,3.10
2023-01-23T19:09:35.495Z,3.10
2023-01-23T19:12:20.600Z,3.20
2023-01-23T19:15:04.621Z,3.30
2023-01-23T19:17:44.682Z,3.30
2023-01-23T19:20:25.819Z,3.30
2023-01-23T19:23:07.860Z,3.30
2023-01-23T19:25:36.667Z,3.30
2023-01-23T19:28:05.709Z,3.30
2023-01-23T19:30:37.109Z,3.30
2023-01-23T19:33:07.165Z,3.30
2023-01-23T19:35:35.659Z,3.30
2023-01-23T19:38:04.289Z,3.40
2023-01-23T19:40:32.795Z,3.30
2023-01-23T19:43:13.496Z,3.30
2023-01-23T19:46:10.664Z,3.30
2023-01-23T19:48:40.837Z,3.20
2023-01-23T19:51:17.590Z,3.20
2023-01-23T19:53:46.964Z,3.20
2023-01-23T19:56:17.992Z,3.30
2023-01-23T19:58:47.434Z,3.20
2023-01-23T20:01:24.405Z,3.20
2023-01-23T20:03:54.538Z,3.30
2023-01-23T20:06:23.185Z,3.30
2023-01-23T20:08:51.840Z,3.20
2023-01-23T20:11:20.452Z,3.20
2023-01-23T20:13:49.278Z,3.20
2023-01-23T20:16:21.749Z,3.20
2023-01-23T20:18:50.978Z,3.20
2023-01-23T20:21:22.458Z,3.20
2023-01-23T20:23:51.169Z,3.10
2023-01-23T20:26:21.710Z,3.10
2023-01-23T20:28:53.405Z,3.10
2023-01-23T20:31:22.820Z,3.10
2023-01-23T20:33:52.047Z,3.00
2023-01-23T20:36:22.206Z,3.00
2023-01-23T20:38:50.735Z,3.00
2023-01-23T20:41:20.770Z,3.00
2023-01-23T20:43:50.368Z,2.90
2023-01-23T20:46:19.524Z,3.00
2023-01-23T20:48:49.136Z,2.90
2023-01-23T20:51:18.616Z,2.90
2023-01-23T20:53:47.814Z,2.90
2023-01-23T20:56:18.867Z,2.90
2023-01-23T20:59:06.985Z,2.90
2023-01-23T21:01:51.635Z,2.90
2023-01-23T21:04:20.513Z,2.90
2023-01-23T21:06:49.460Z,2.90
2023-01-23T21:09:19.624Z,2.90
2023-01-23T21:11:49.899Z,2.90
2023-01-23T21:14:19.907Z,2.80
2023-01-23T21:16:49.421Z,2.80
2023-01-23T21:19:18.560Z,2.80
2023-01-23T21:21:47.193Z,2.80
2023-01-23T21:24:15.831Z,2.90
2023-01-23T21:26:47.947Z,2.90
2023-01-23T21:29:16.680Z,2.80
2023-01-23T21:31:45.375Z,2.90
2023-01-23T21:34:16.098Z,2.90
2023-01-23T21:36:45.067Z,2.90
2023-01-23T21:40:05.648Z,2.90
2023-01-23T21:42:35.709Z,2.80
2023-01-23T21:45:04.970Z,2.80
2023-01-23T21:47:33.434Z,2.80
2023-01-23T21:50:02.044Z,2.80
2023-01-23T21:52:31.194Z,2.70
2023-01-23T21:54:59.791Z,2.70
2023-01-23T21:57:28.449Z,2.70
2023-01-23T22:00:15.914Z,2.70
2023-01-23T22:02:44.619Z,2.70
2023-01-23T22:05:13.336Z,2.80
2023-01-23T22:07:41.875Z,2.80
2023-01-23T22:10:11.533Z,2.80
2023-01-23T22:12:40.199Z,2.80
2023-01-23T22:15:11.576Z,2.80
2023-01-23T22:17:40.195Z,2.90
2023-01-23T22:20:10.268Z,2.80
2023-01-23T22:22:38.958Z,2.80
2023-01-23T22:25:08.801Z,2.80
2023-01-23T22:27:37.424Z,2.80
2023-01-23T22:30:06.636Z,2.80
2023-01-23T22:32:36.939Z,2.80
2023-01-23T22:35:06.135Z,2.80
2023-01-23T22:37:34.702Z,2.80
2023-01-23T22:40:03.337Z,2.80
2023-01-23T22:42:32.206Z,2.80
2023-01-23T22:45:00.866Z,2.80
2023-01-23T22:47:29.886Z,2.70
2023-01-23T22:50:00.194Z,2.70
2023-01-23T22:52:28.791Z,2.70
2023-01-23T22:54:57.387Z,2.70
2023-01-23T22:57:26.135Z,2.70
2023-01-23T22:59:54.869Z,2.70
2023-01-23T23:02:23.378Z,2.70
2023-01-23T23:04:51.931Z,2.70
2023-01-23T23:07:22.007Z,2.70
2023-01-23T23:09:50.587Z,2.70
2023-01-23T23:12:19.153Z,2.70
2023-01-23T23:14:47.827Z,2.70
2023-01-23T23:17:16.596Z,2.70
2023-01-23T23:19:45.331Z,2.70
2023-01-23T23:22:13.914Z,2.70
2023-01-23T23:24:44.099Z,2.70
2023-01-23T23:27:12.660Z,2.70
2023-01-23T23:29:41.415Z,2.60
2023-01-23T23:32:10.397Z,2.60
2023-01-23T23:34:38.938Z,2.60
2023-01-23T23:37:07.470Z,2.60
2023-01-23T23:39:36.027Z,2.50
2023-01-23T23:42:06.320Z,2.60
2023-01-23T23:44:34.941Z,2.60
2023-01-23T23:47:03.447Z,2.60
2023-01-23T23:49:32.209Z,2.60
2023-01-23T23:52:00.726Z,2.60
2023-01-23T23:54:29.358Z,2.60
2023-01-23T23:56:57.928Z,2.60
2023-01-23T23:59:27.970Z,2.60
